Pays
Station

 

Conditions  météo  pour  Mansfield, Mansfield Lahm Municipal Airport  -  Etats-Unis    Etats-Unis

  
1 °C
    
 
 

METAR pour Mansfield, Mansfield Lahm Municipal Airport :

KMFD 212352Z 19005KT 10SM CLR 01/M02 A3020 RMK AO2 SLP239 T00111022 10072 20011 58005

 

Voici le bulletin pour Mansfield, Mansfield Lahm Municipal Airport - Etats-Unis.
 
Le bulletin a été fait il y a 9 minutes, à 23:52 UTC .
Le vent soufflait à la vitesse de 2.6 mètres par seconde de Sud (190°).
 
La température était de 1 °C, avec un point de rosée à -2 °C.
La température ressentie était de -2 °C.
 
La pression atmosphérique était de 1023 hPa.
L'humidité relative était de 80.3%.
 
Le ciel était clair.
 
La visibilité globale était de 16.1 kilomètres.
 

 
 
 

Pays :   A   B   C   D   E   F   G   H   I   J   K   L   M   N   O   P   Q   R   S   T   U   V   W   Y   Z

 

Partenaires :  Info Météo avec Met'info
Météo Marine avec MeteoMarine.net
Infos Site  |  Infos Légales  |  Crédits  |  Confidentialité
Contactez-nous  |  Ajouter aux favoris
© 2013-2018 METAR - Tous droits réservés